createdAt,value
2023-04-14T00:00:20.690Z,35.26
2023-04-14T00:01:52.446Z,35.35
2023-04-14T00:03:24.336Z,35.21
2023-04-14T00:04:56.942Z,35.04
2023-04-14T00:06:28.489Z,34.97
2023-04-14T00:08:00.188Z,35.44
2023-04-14T00:09:32.137Z,35.37
2023-04-14T00:11:03.698Z,35.27
2023-04-14T00:12:35.189Z,35.46
2023-04-14T00:14:07.215Z,35.12
2023-04-14T00:15:40.072Z,35.31
2023-04-14T00:17:12.044Z,35.29
2023-04-14T00:18:43.613Z,35.45
2023-04-14T00:20:15.259Z,35.37
2023-04-14T00:21:47.354Z,35.38
2023-04-14T00:23:19.521Z,35.43
2023-04-14T00:24:51.376Z,35.18
2023-04-14T00:26:23.142Z,35.61
2023-04-14T00:27:54.864Z,35.62
2023-04-14T00:29:27.594Z,35.50
2023-04-14T00:30:59.310Z,35.46
2023-04-14T00:32:31.141Z,35.64
2023-04-14T00:34:02.993Z,35.61
2023-04-14T00:35:45.385Z,35.78
2023-04-14T00:37:17.691Z,35.78
2023-04-14T00:38:50.309Z,35.81
2023-04-14T00:40:29.763Z,35.48
2023-04-14T00:42:01.955Z,35.44
2023-04-14T00:43:33.669Z,35.76
2023-04-14T00:45:08.394Z,35.50
2023-04-14T00:46:40.837Z,35.74
2023-04-14T00:48:12.404Z,35.52
2023-04-14T00:49:44.291Z,35.89
2023-04-14T00:51:16.119Z,35.73
2023-04-14T00:52:48.363Z,35.88
2023-04-14T00:54:20.966Z,35.55
2023-04-14T00:55:52.550Z,35.83
2023-04-14T00:57:24.268Z,35.57
2023-04-14T00:59:09.492Z,35.81
2023-04-14T01:00:41.129Z,35.56
2023-04-14T01:02:14.842Z,35.82
2023-04-14T01:03:46.891Z,35.62
2023-04-14T01:05:18.864Z,35.49
2023-04-14T01:06:50.525Z,35.44
2023-04-14T01:08:22.119Z,35.54
2023-04-14T01:09:54.717Z,35.51
2023-04-14T01:11:47.223Z,35.50
2023-04-14T01:13:26.581Z,35.63
2023-04-14T01:15:16.896Z,35.41
2023-04-14T01:16:50.810Z,35.71
2023-04-14T01:18:40.655Z,35.68
2023-04-14T01:20:19.328Z,35.73
2023-04-14T01:21:52.658Z,36.23
2023-04-14T01:23:26.804Z,36.20
2023-04-14T01:25:16.945Z,36.30
2023-04-14T01:26:49.625Z,36.27
2023-04-14T01:28:24.008Z,36.55
2023-04-14T01:30:14.507Z,36.31
2023-04-14T01:31:46.436Z,36.70
2023-04-14T01:33:19.167Z,36.54
2023-04-14T01:34:51.267Z,36.87
2023-04-14T01:36:27.245Z,36.96
2023-04-14T01:37:59.615Z,37.00
2023-04-14T01:39:33.195Z,36.85
2023-04-14T01:41:05.870Z,36.92
2023-04-14T01:42:37.768Z,36.71
2023-04-14T01:44:09.274Z,37.12
2023-04-14T01:45:44.731Z,37.14
2023-04-14T01:47:16.296Z,37.27
2023-04-14T01:48:49.090Z,37.33
2023-04-14T01:50:20.973Z,37.19
2023-04-14T01:51:53.737Z,37.25
2023-04-14T01:53:26.004Z,37.21
2023-04-14T01:54:57.536Z,37.07
2023-04-14T01:56:29.160Z,37.32
2023-04-14T01:58:00.667Z,37.19
2023-04-14T01:59:32.728Z,37.20
2023-04-14T02:01:04.855Z,37.34
2023-04-14T02:02:38.093Z,37.37
2023-04-14T02:04:10.076Z,37.28
2023-04-14T02:05:42.806Z,37.29
2023-04-14T02:07:14.346Z,37.25
2023-04-14T02:08:46.084Z,37.35
2023-04-14T02:10:18.350Z,37.17
2023-04-14T02:11:49.973Z,37.02
2023-04-14T02:13:22.275Z,37.26
2023-04-14T02:14:53.975Z,37.20
2023-04-14T02:16:26.031Z,37.32
2023-04-14T02:17:58.437Z,37.24
2023-04-14T02:19:30.119Z,37.27
2023-04-14T02:21:01.622Z,37.39
2023-04-14T02:22:33.210Z,37.38
2023-04-14T02:24:04.957Z,37.37
2023-04-14T02:25:36.773Z,37.19
2023-04-14T02:27:08.927Z,37.15
2023-04-14T02:28:46.294Z,37.36
2023-04-14T02:30:19.718Z,37.50
2023-04-14T02:32:01.181Z,37.55
2023-04-14T02:33:34.124Z,37.52
2023-04-14T02:35:07.407Z,37.57
2023-04-14T02:36:59.270Z,37.69
2023-04-14T02:38:38.364Z,37.66
2023-04-14T02:40:16.363Z,37.67
2023-04-14T02:41:48.669Z,37.81
2023-04-14T02:43:20.315Z,37.79
2023-04-14T02:44:52.273Z,37.79
2023-04-14T02:46:24.002Z,37.74
2023-04-14T02:47:56.369Z,37.75
2023-04-14T02:49:27.923Z,37.79
2023-04-14T02:50:59.545Z,37.77
2023-04-14T02:52:31.655Z,37.93
2023-04-14T02:54:03.995Z,37.76
2023-04-14T02:55:35.579Z,37.90
2023-04-14T02:57:07.562Z,37.92
2023-04-14T02:58:39.657Z,38.04
2023-04-14T03:00:11.393Z,38.10
2023-04-14T03:01:43.623Z,37.83
2023-04-14T03:03:15.576Z,37.57
2023-04-14T03:04:47.196Z,37.59
2023-04-14T03:06:18.781Z,37.61
2023-04-14T03:07:51.147Z,37.77
2023-04-14T03:09:22.652Z,37.83
2023-04-14T03:10:54.174Z,37.73
2023-04-14T03:12:25.920Z,38.00
2023-04-14T03:13:57.485Z,37.96
2023-04-14T03:15:29.035Z,37.99
2023-04-14T03:17:00.535Z,38.27
2023-04-14T03:18:32.042Z,38.15
2023-04-14T03:20:03.775Z,38.02
2023-04-14T03:21:35.395Z,38.52
2023-04-14T03:23:07.901Z,38.16
2023-04-14T03:24:40.312Z,38.14
2023-04-14T03:26:12.635Z,38.45
2023-04-14T03:27:44.189Z,38.30
2023-04-14T03:29:16.020Z,38.18
2023-04-14T03:30:48.022Z,38.38
2023-04-14T03:32:19.664Z,38.22
2023-04-14T03:33:56.001Z,38.42
2023-04-14T03:35:27.572Z,38.27
2023-04-14T03:36:59.081Z,38.30
2023-04-14T03:38:30.647Z,38.66
2023-04-14T03:40:04.502Z,38.37
2023-04-14T03:41:37.824Z,38.31
2023-04-14T03:43:13.579Z,38.68
2023-04-14T03:44:51.949Z,38.57
2023-04-14T03:46:24.472Z,38.30
2023-04-14T03:47:58.247Z,38.33
2023-04-14T03:49:30.586Z,38.23
2023-04-14T03:51:02.813Z,37.79
2023-04-14T03:52:34.884Z,37.97
2023-04-14T03:54:06.576Z,37.95
2023-04-14T03:55:38.097Z,38.11
2023-04-14T03:57:10.790Z,38.30
2023-04-14T03:58:43.055Z,38.68
2023-04-14T04:00:15.382Z,38.44
2023-04-14T04:01:48.241Z,38.34
2023-04-14T04:03:20.059Z,38.12
2023-04-14T04:04:52.052Z,38.43
2023-04-14T04:06:23.879Z,38.02
2023-04-14T04:07:55.896Z,38.30
2023-04-14T04:09:27.491Z,38.25
2023-04-14T04:10:59.132Z,38.40
2023-04-14T04:12:30.881Z,38.83
2023-04-14T04:14:03.458Z,39.20
2023-04-14T04:15:35.184Z,38.96
2023-04-14T04:17:07.796Z,38.94
2023-04-14T04:18:39.604Z,39.41
2023-04-14T04:20:14.471Z,39.55
2023-04-14T04:21:46.131Z,39.38
2023-04-14T04:23:50.449Z,39.54
2023-04-14T04:31:19.263Z,39.42
2023-04-14T04:32:51.427Z,39.69
2023-04-14T04:34:23.579Z,39.56
2023-04-14T04:35:58.211Z,39.43
2023-04-14T04:39:18.932Z,39.55
2023-04-14T04:40:51.152Z,39.83
2023-04-14T04:42:22.734Z,39.84
2023-04-14T04:43:54.347Z,39.72
2023-04-14T04:45:40.388Z,39.81
2023-04-14T04:47:12.348Z,39.96
2023-04-14T04:48:48.501Z,39.71
2023-04-14T04:50:29.372Z,40.05
2023-04-14T04:52:00.960Z,40.33
2023-04-14T04:53:35.438Z,40.15
2023-04-14T04:55:07.342Z,39.86
2023-04-14T04:56:40.764Z,40.16
2023-04-14T04:58:12.689Z,40.04
2023-04-14T04:59:47.923Z,39.92
2023-04-14T05:01:19.786Z,40.02
2023-04-14T05:02:51.584Z,40.16
2023-04-14T05:04:23.321Z,40.22
2023-04-14T05:05:58.969Z,40.15
2023-04-14T05:07:30.457Z,39.94
2023-04-14T05:09:02.129Z,40.33
2023-04-14T05:10:35.067Z,40.13
2023-04-14T05:12:06.741Z,40.35
2023-04-14T05:13:38.248Z,40.13
2023-04-14T05:15:10.139Z,40.27
2023-04-14T05:16:41.734Z,40.21
2023-04-14T05:18:16.158Z,40.25
2023-04-14T05:19:57.754Z,39.99
2023-04-14T05:21:32.910Z,40.02
2023-04-14T05:23:04.512Z,40.01
2023-04-14T05:24:36.270Z,40.09
2023-04-14T05:27:46.140Z,40.00
2023-04-14T05:29:18.361Z,39.98
2023-04-14T05:30:51.438Z,39.97
2023-04-14T05:32:23.089Z,39.83
2023-04-14T05:33:54.669Z,39.86
2023-04-14T05:35:26.625Z,39.66
2023-04-14T05:36:58.130Z,39.79
2023-04-14T05:38:29.714Z,39.63
2023-04-14T05:40:01.515Z,39.52
2023-04-14T05:41:33.180Z,39.45
2023-04-14T05:43:04.796Z,39.39
2023-04-14T05:44:36.631Z,39.50
2023-04-14T05:46:08.223Z,39.76
2023-04-14T05:47:50.821Z,39.48
2023-04-14T05:51:39.748Z,38.94
2023-04-14T05:53:12.275Z,39.09
2023-04-14T05:54:43.949Z,39.13
2023-04-14T05:56:15.664Z,38.94
2023-04-14T05:57:47.324Z,39.29
2023-04-14T05:59:19.155Z,39.00
2023-04-14T06:00:50.960Z,39.06
2023-04-14T06:02:23.242Z,38.96
2023-04-14T06:03:55.226Z,38.93
2023-04-14T06:05:29.398Z,38.83
2023-04-14T06:07:17.960Z,39.13
2023-04-14T06:08:49.627Z,39.17
2023-04-14T06:10:21.236Z,38.85
2023-04-14T06:11:53.062Z,39.00
2023-04-14T06:13:31.995Z,38.80
2023-04-14T06:15:05.778Z,38.80
2023-04-14T06:16:37.488Z,38.43
2023-04-14T06:18:09.692Z,38.75
2023-04-14T06:19:55.512Z,38.62
2023-04-14T06:21:32.213Z,39.08
2023-04-14T06:23:07.935Z,39.03
2023-04-14T06:24:41.048Z,39.09
2023-04-14T06:26:28.406Z,39.16
2023-04-14T06:28:06.895Z,39.34
2023-04-14T06:29:38.501Z,39.30
2023-04-14T06:31:10.795Z,39.15
2023-04-14T06:32:42.580Z,39.00
2023-04-14T06:34:14.390Z,39.39
2023-04-14T06:37:32.342Z,38.69
2023-04-14T06:39:05.085Z,38.97
2023-04-14T06:40:36.730Z,38.88
2023-04-14T06:42:08.397Z,39.21
2023-04-14T06:43:43.046Z,39.15
2023-04-14T06:45:17.659Z,39.05
2023-04-14T06:47:03.331Z,39.15
2023-04-14T06:48:34.978Z,38.92
2023-04-14T06:50:08.094Z,39.22
2023-04-14T06:51:40.080Z,39.16
2023-04-14T06:53:13.061Z,38.89
2023-04-14T06:54:44.858Z,39.13
2023-04-14T06:56:17.621Z,39.14
2023-04-14T06:57:49.623Z,39.19
2023-04-14T06:59:23.503Z,38.92
2023-04-14T07:00:57.934Z,39.07
2023-04-14T07:02:30.158Z,39.15
2023-04-14T07:04:05.066Z,39.09
2023-04-14T07:05:50.808Z,39.20
2023-04-14T07:07:25.236Z,39.25
2023-04-14T07:08:57.205Z,38.80
2023-04-14T07:10:33.416Z,39.14
2023-04-14T07:12:07.874Z,39.16
2023-04-14T07:13:40.089Z,39.01
2023-04-14T07:15:17.962Z,39.30
2023-04-14T07:16:50.548Z,38.99
2023-04-14T07:18:28.280Z,38.97
2023-04-14T07:20:16.302Z,39.29
2023-04-14T07:22:07.988Z,39.07
2023-04-14T07:23:41.670Z,39.27
2023-04-14T07:25:16.452Z,39.12
2023-04-14T07:28:58.106Z,38.92
2023-04-14T07:30:33.879Z,38.80
2023-04-14T07:32:08.881Z,39.04
2023-04-14T07:33:42.636Z,38.78
2023-04-14T07:35:32.211Z,38.84
2023-04-14T07:37:06.434Z,38.54
2023-04-14T07:39:08.272Z,38.71
2023-04-14T07:43:02.159Z,38.19
2023-04-14T07:44:51.877Z,38.50
2023-04-14T07:46:23.739Z,38.37
2023-04-14T07:48:18.949Z,38.24
2023-04-14T07:50:17.725Z,38.13
2023-04-14T07:52:17.481Z,37.85
2023-04-14T07:55:54.985Z,37.92
2023-04-14T07:57:38.137Z,37.83
2023-04-14T08:01:10.275Z,37.54
2023-04-14T08:03:19.222Z,37.45
2023-04-14T08:05:20.411Z,37.29
2023-04-14T08:06:52.722Z,37.38
2023-04-14T08:08:30.588Z,37.30
2023-04-14T08:12:42.116Z,37.31
2023-04-14T08:14:51.689Z,37.28
2023-04-14T08:16:26.063Z,37.39
2023-04-14T08:17:58.327Z,37.42
2023-04-14T08:23:22.798Z,37.28
2023-04-14T08:25:31.504Z,37.23
2023-04-14T08:27:22.307Z,37.36
2023-04-14T08:28:57.228Z,37.27
2023-04-14T08:33:03.194Z,37.27
2023-04-14T08:35:39.344Z,37.32
2023-04-14T08:37:05.027Z,37.36
2023-04-14T08:53:15.936Z,37.22
2023-04-14T08:57:30.665Z,37.14
2023-04-14T08:59:29.306Z,37.16
2023-04-14T09:01:35.956Z,37.14
2023-04-14T09:03:16.634Z,37.24
2023-04-14T09:07:11.551Z,36.98
2023-04-14T09:08:43.835Z,36.96
2023-04-14T09:10:17.706Z,37.20
2023-04-14T09:11:49.471Z,36.90
2023-04-14T09:13:21.708Z,36.76
2023-04-14T09:14:56.791Z,36.93
2023-04-14T09:16:32.618Z,36.85
2023-04-14T09:18:04.751Z,36.83
2023-04-14T09:20:35.106Z,36.64
2023-04-14T09:21:53.601Z,36.69
2023-04-14T09:23:35.833Z,36.46
2023-04-14T09:25:19.673Z,36.56
2023-04-14T09:26:53.656Z,36.73
2023-04-14T09:28:32.196Z,36.58
2023-04-14T09:30:06.398Z,36.67
2023-04-14T09:31:38.233Z,36.58
2023-04-14T09:33:26.846Z,36.57
2023-04-14T09:35:01.423Z,36.53
2023-04-14T09:36:33.703Z,36.57
2023-04-14T09:38:05.477Z,36.67
2023-04-14T09:40:14.720Z,36.64
2023-04-14T09:41:49.332Z,36.63
2023-04-14T09:43:44.480Z,36.67
2023-04-14T09:45:20.491Z,36.67
2023-04-14T09:46:58.783Z,36.63
2023-04-14T09:48:30.712Z,36.61
2023-04-14T09:50:07.237Z,36.59
2023-04-14T09:51:38.889Z,36.50
2023-04-14T09:53:11.385Z,36.45
2023-04-14T09:54:43.276Z,36.50
2023-04-14T09:56:15.100Z,36.57
2023-04-14T09:57:47.853Z,36.40
2023-04-14T09:59:35.563Z,36.48
2023-04-14T10:01:14.416Z,36.47
2023-04-14T10:03:03.572Z,36.59
2023-04-14T10:07:13.594Z,36.86
2023-04-14T10:10:48.257Z,36.92
2023-04-14T10:12:21.981Z,37.06
2023-04-14T10:13:54.989Z,37.04
2023-04-14T10:15:31.192Z,37.33
2023-04-14T10:17:07.876Z,37.63
2023-04-14T10:18:40.318Z,37.79
2023-04-14T10:20:12.930Z,38.21
2023-04-14T10:21:46.611Z,38.59
2023-04-14T10:23:18.439Z,38.83
2023-04-14T10:24:56.589Z,39.29
2023-04-14T10:26:43.026Z,39.67
2023-04-14T10:28:23.711Z,39.82
2023-04-14T10:29:55.529Z,39.98
2023-04-14T10:31:28.933Z,39.99
2023-04-14T10:33:00.618Z,40.16
2023-04-14T10:34:35.450Z,40.11
2023-04-14T10:36:07.230Z,40.59
2023-04-14T10:37:39.022Z,40.46
2023-04-14T10:39:11.884Z,40.53
2023-04-14T10:41:00.614Z,40.56
2023-04-14T10:43:09.209Z,40.83
2023-04-14T10:44:41.807Z,40.91
2023-04-14T10:46:18.031Z,40.93
2023-04-14T10:47:50.554Z,40.82
2023-04-14T10:49:24.247Z,40.71
2023-04-14T10:51:00.934Z,40.79
2023-04-14T10:53:04.645Z,41.07
2023-04-14T10:55:40.158Z,41.05
2023-04-14T10:57:23.561Z,41.00
2023-04-14T10:58:56.606Z,41.25
2023-04-14T11:00:28.553Z,41.10
2023-04-14T11:02:00.949Z,41.20
2023-04-14T11:03:33.468Z,40.98
2023-04-14T11:05:10.698Z,41.32
2023-04-14T11:06:48.364Z,41.12
2023-04-14T11:08:26.094Z,41.44
2023-04-14T11:10:05.539Z,41.44
2023-04-14T11:11:37.799Z,41.41
2023-04-14T11:16:05.924Z,41.60
2023-04-14T11:20:00.990Z,41.74
2023-04-14T11:21:35.579Z,41.87
2023-04-14T11:23:07.232Z,41.98
2023-04-14T11:23:16.729Z,41.40
2023-04-14T11:24:40.909Z,42.15
2023-04-14T11:26:14.467Z,42.30
2023-04-14T11:27:47.426Z,42.15
2023-04-14T11:29:20.008Z,42.58
2023-04-14T11:30:52.116Z,42.83
2023-04-14T11:32:24.109Z,42.38
2023-04-14T11:33:56.981Z,42.93
2023-04-14T11:35:35.380Z,43.07
2023-04-14T11:37:16.546Z,42.98
2023-04-14T11:38:51.338Z,43.10
2023-04-14T11:40:23.855Z,43.09
2023-04-14T11:41:57.162Z,43.19
2023-04-14T11:43:32.054Z,43.98
2023-04-14T11:45:19.780Z,43.75
2023-04-14T11:49:29.390Z,44.57
2023-04-14T11:53:28.543Z,44.87
2023-04-14T11:55:50.692Z,44.70
2023-04-14T11:57:30.520Z,44.66
2023-04-14T11:59:28.176Z,44.46
2023-04-14T12:01:13.768Z,44.97
2023-04-14T12:03:11.180Z,45.03
2023-04-14T12:03:20.102Z,44.57
2023-04-14T12:05:07.001Z,44.97
2023-04-14T12:30:10.672Z,45.83
2023-04-14T12:32:03.420Z,46.42
2023-04-14T12:35:38.116Z,46.42
2023-04-14T12:37:22.954Z,46.25
2023-04-14T12:38:57.764Z,46.84
2023-04-14T12:41:35.923Z,46.59
2023-04-14T12:43:39.364Z,46.45
2023-04-14T12:45:14.876Z,47.16
2023-04-14T12:47:02.891Z,47.38
2023-04-14T12:48:49.589Z,47.41
2023-04-14T12:50:35.351Z,47.26
2023-04-14T12:52:45.867Z,47.69
2023-04-14T12:54:42.231Z,47.54
2023-04-14T12:58:24.412Z,47.71
2023-04-14T13:01:06.549Z,47.96
2023-04-14T13:07:00.523Z,47.69
2023-04-14T13:08:44.294Z,47.74
2023-04-14T13:10:19.369Z,47.87
2023-04-14T13:11:51.854Z,47.63
2023-04-14T13:13:38.676Z,48.38
2023-04-14T13:16:12.297Z,48.13
2023-04-14T13:17:03.761Z,48.55
2023-04-14T13:18:35.984Z,48.44
2023-04-14T13:20:08.540Z,48.39
2023-04-14T13:21:46.338Z,48.09
2023-04-14T13:23:23.612Z,48.09
2023-04-14T13:25:00.818Z,48.14
2023-04-14T13:26:33.182Z,48.67
2023-04-14T13:28:05.012Z,48.07
2023-04-14T13:29:39.637Z,48.18
2023-04-14T13:31:25.265Z,48.48
2023-04-14T13:34:49.133Z,48.29
2023-04-14T13:36:31.307Z,48.45
2023-04-14T13:38:07.682Z,48.50
2023-04-14T13:39:42.275Z,48.19
2023-04-14T13:41:15.888Z,48.38
2023-04-14T13:42:49.013Z,48.38
2023-04-14T13:44:20.875Z,48.27
2023-04-14T13:45:53.147Z,48.29
2023-04-14T13:47:40.326Z,47.98
2023-04-14T13:49:15.852Z,48.71
2023-04-14T13:50:47.788Z,47.88
2023-04-14T13:52:27.714Z,48.30
2023-04-14T13:54:00.528Z,48.72
2023-04-14T13:55:34.489Z,48.26
2023-04-14T13:57:07.130Z,48.20
2023-04-14T13:58:40.872Z,47.93
2023-04-14T14:00:18.810Z,48.19
2023-04-14T14:01:51.873Z,48.23
2023-04-14T14:03:29.815Z,48.30
2023-04-14T14:05:04.552Z,48.08
2023-04-14T14:06:40.773Z,48.64
2023-04-14T14:08:15.342Z,48.09
2023-04-14T14:09:52.814Z,48.00
2023-04-14T14:11:25.442Z,47.99
2023-04-14T14:12:58.917Z,48.07
2023-04-14T14:14:33.621Z,48.78
2023-04-14T14:16:07.145Z,48.63
2023-04-14T14:17:41.392Z,48.18
2023-04-14T14:19:17.046Z,47.70
2023-04-14T14:20:48.913Z,48.02
2023-04-14T14:22:23.089Z,47.76
2023-04-14T14:23:54.998Z,48.01
2023-04-14T14:25:26.642Z,47.82
2023-04-14T14:26:58.780Z,48.00
2023-04-14T14:28:30.571Z,47.68
2023-04-14T14:30:02.559Z,47.50
2023-04-14T14:31:34.844Z,47.11
2023-04-14T14:33:06.588Z,47.47
2023-04-14T14:34:39.549Z,48.26
2023-04-14T14:36:11.853Z,47.87
2023-04-14T14:37:45.215Z,47.19
2023-04-14T14:39:20.141Z,47.81
2023-04-14T14:40:52.240Z,47.59
2023-04-14T14:42:24.201Z,47.83
2023-04-14T14:43:56.155Z,47.47
2023-04-14T14:45:37.188Z,47.35
2023-04-14T14:47:09.304Z,47.72
2023-04-14T14:48:41.192Z,47.36
2023-04-14T14:50:13.058Z,47.21
2023-04-14T14:51:44.951Z,47.67
2023-04-14T14:53:16.885Z,47.22
2023-04-14T14:54:49.199Z,47.82
2023-04-14T14:56:21.129Z,47.01
2023-04-14T14:57:52.839Z,46.89
2023-04-14T14:59:24.567Z,47.23
2023-04-14T15:00:56.572Z,47.40
2023-04-14T15:02:30.477Z,47.43
2023-04-14T15:04:06.752Z,46.57
2023-04-14T15:06:37.893Z,46.83
2023-04-14T15:13:56.704Z,46.86
2023-04-14T15:15:29.301Z,46.81
2023-04-14T15:17:01.303Z,46.73
2023-04-14T15:18:33.278Z,46.70
2023-04-14T15:20:06.078Z,46.55
2023-04-14T15:21:38.285Z,46.45
2023-04-14T15:23:10.000Z,46.30
2023-04-14T15:24:41.667Z,46.33
2023-04-14T15:26:14.349Z,46.27
2023-04-14T15:27:46.608Z,46.02
2023-04-14T15:29:19.597Z,45.74
2023-04-14T15:30:51.334Z,45.78
2023-04-14T15:32:26.753Z,45.73
2023-04-14T15:34:02.429Z,45.15
2023-04-14T15:35:38.822Z,45.53
2023-04-14T15:37:11.115Z,45.34
2023-04-14T15:38:43.065Z,45.34
2023-04-14T15:40:18.677Z,45.28
2023-04-14T15:41:51.580Z,45.75
2023-04-14T15:43:23.688Z,45.89
2023-04-14T15:44:58.191Z,45.51
2023-04-14T15:46:30.469Z,45.89
2023-04-14T15:48:19.723Z,45.49
2023-04-14T15:50:18.854Z,45.40
2023-04-14T15:51:57.935Z,45.79
2023-04-14T15:53:33.390Z,45.33
2023-04-14T15:55:30.029Z,45.51
2023-04-14T15:57:07.870Z,45.23
2023-04-14T15:58:50.070Z,45.06
2023-04-14T16:04:20.511Z,44.83
2023-04-14T16:06:04.849Z,44.93
2023-04-14T16:07:36.795Z,45.00
2023-04-14T16:09:08.696Z,45.04
2023-04-14T16:10:44.066Z,44.91
2023-04-14T16:12:18.152Z,44.73
2023-04-14T16:13:50.170Z,44.96
2023-04-14T16:15:25.109Z,44.93
2023-04-14T16:16:58.588Z,44.91
2023-04-14T16:18:30.370Z,44.92
2023-04-14T16:20:04.686Z,44.68
2023-04-14T16:21:36.436Z,44.62
2023-04-14T16:23:08.217Z,44.79
2023-04-14T16:24:41.377Z,44.72
2023-04-14T16:26:16.171Z,44.55
2023-04-14T16:27:48.671Z,44.72
2023-04-14T16:29:20.664Z,44.88
2023-04-14T16:31:02.152Z,44.77
2023-04-14T16:32:34.240Z,44.85
2023-04-14T16:34:06.259Z,45.19
2023-04-14T16:35:38.544Z,45.05
2023-04-14T16:37:10.360Z,44.86
2023-04-14T16:38:42.428Z,45.09
2023-04-14T16:40:39.503Z,44.97
2023-04-14T16:42:14.491Z,44.94
2023-04-14T16:43:46.352Z,45.32
2023-04-14T16:45:20.334Z,45.00
2023-04-14T16:46:55.020Z,45.51
2023-04-14T16:48:29.544Z,45.59
2023-04-14T16:50:04.421Z,45.50
2023-04-14T16:51:47.163Z,45.60
2023-04-14T16:53:19.243Z,45.50
2023-04-14T16:54:53.108Z,45.64
2023-04-14T16:57:30.278Z,45.29
2023-04-14T17:01:41.590Z,45.15
2023-04-14T17:03:20.868Z,45.51
2023-04-14T17:04:53.478Z,45.12
2023-04-14T17:08:09.834Z,45.05
2023-04-14T17:09:42.113Z,45.66
2023-04-14T17:11:15.190Z,45.11
2023-04-14T17:12:47.559Z,45.40
2023-04-14T17:14:26.384Z,45.91
2023-04-14T17:16:06.111Z,45.43
2023-04-14T17:17:50.018Z,45.69
2023-04-14T17:19:25.733Z,45.36
2023-04-14T17:20:57.492Z,45.29
2023-04-14T17:22:29.134Z,45.34
2023-04-14T17:24:01.318Z,45.50
2023-04-14T17:25:33.763Z,45.74
2023-04-14T17:27:05.633Z,44.91
2023-04-14T17:28:38.748Z,45.25
2023-04-14T17:30:11.608Z,44.79
2023-04-14T17:31:44.584Z,45.10
2023-04-14T17:33:18.034Z,45.05
2023-04-14T17:34:50.422Z,45.23
2023-04-14T17:36:23.100Z,44.76
2023-04-14T17:37:56.474Z,45.37
2023-04-14T17:39:28.762Z,44.88
2023-04-14T17:41:01.360Z,44.89
2023-04-14T17:42:34.553Z,44.97
2023-04-14T17:44:07.011Z,45.04
2023-04-14T17:45:40.231Z,44.95
2023-04-14T17:47:15.790Z,44.70
2023-04-14T17:48:47.516Z,45.08
2023-04-14T17:50:19.934Z,44.90
2023-04-14T17:51:51.572Z,45.13
2023-04-14T17:53:23.228Z,44.87
2023-04-14T17:54:54.982Z,44.81
2023-04-14T17:56:26.743Z,44.87
2023-04-14T17:57:58.796Z,44.75
2023-04-14T17:59:30.652Z,44.71
2023-04-14T18:01:02.307Z,45.10
2023-04-14T18:02:37.277Z,45.27
2023-04-14T18:04:09.071Z,44.75
2023-04-14T18:05:41.544Z,45.01
2023-04-14T18:07:13.427Z,45.46
2023-04-14T18:08:50.011Z,44.88
2023-04-14T18:10:25.853Z,45.11
2023-04-14T18:11:58.157Z,45.49
2023-04-14T18:13:30.264Z,44.73
2023-04-14T18:15:02.246Z,45.40
2023-04-14T18:16:34.301Z,44.92
2023-04-14T18:18:06.384Z,45.43
2023-04-14T18:19:38.654Z,45.40
2023-04-14T18:21:10.669Z,45.33
2023-04-14T18:22:43.564Z,44.81
2023-04-14T18:29:09.173Z,45.79
2023-04-14T18:30:41.365Z,45.28
2023-04-14T18:32:14.004Z,45.16
2023-04-14T18:33:45.972Z,46.13
2023-04-14T18:35:17.775Z,45.42
2023-04-14T18:36:49.966Z,46.30
2023-04-14T18:38:22.000Z,46.16
2023-04-14T18:39:54.135Z,45.71
2023-04-14T18:41:26.045Z,46.66
2023-04-14T18:42:57.793Z,46.31
2023-04-14T18:44:29.932Z,46.40
2023-04-14T18:46:01.693Z,45.94
2023-04-14T18:47:34.289Z,46.59
2023-04-14T18:49:06.016Z,46.42
2023-04-14T18:50:37.718Z,46.43
2023-04-14T18:52:09.809Z,46.44
2023-04-14T18:53:44.137Z,46.87
2023-04-14T18:55:15.873Z,46.62
2023-04-14T18:56:47.957Z,46.69
2023-04-14T18:58:19.935Z,46.55
2023-04-14T18:59:51.559Z,46.55
2023-04-14T19:01:23.383Z,46.70
2023-04-14T19:02:56.806Z,46.79
2023-04-14T19:04:29.099Z,46.78
2023-04-14T19:06:00.793Z,46.87
2023-04-14T19:07:32.804Z,47.04
2023-04-14T19:09:04.907Z,46.60
2023-04-14T19:10:37.598Z,46.66
2023-04-14T19:12:18.420Z,46.95
2023-04-14T19:13:57.020Z,46.82
2023-04-14T19:15:28.810Z,46.72
2023-04-14T19:17:00.876Z,47.33
2023-04-14T19:18:32.970Z,47.11
2023-04-14T19:20:05.430Z,47.26
2023-04-14T19:21:37.218Z,47.04
2023-04-14T19:23:09.102Z,47.49
2023-04-14T19:24:41.826Z,47.06
2023-04-14T19:26:31.230Z,47.27
2023-04-14T19:28:04.970Z,47.41
2023-04-14T19:29:36.960Z,47.30
2023-04-14T19:31:17.803Z,47.54
2023-04-14T19:33:01.779Z,47.17
2023-04-14T19:34:50.706Z,47.26
2023-04-14T19:37:08.089Z,47.75
2023-04-14T19:38:41.718Z,47.42
2023-04-14T19:40:14.491Z,47.54
2023-04-14T19:41:47.058Z,47.92
2023-04-14T19:43:20.334Z,47.87
2023-04-14T19:44:52.525Z,47.88
2023-04-14T19:46:24.648Z,47.78
2023-04-14T19:47:56.389Z,47.79
2023-04-14T19:49:28.616Z,47.83
2023-04-14T19:51:00.479Z,47.87
2023-04-14T19:52:32.377Z,47.46
2023-04-14T19:54:05.756Z,47.71
2023-04-14T19:55:37.618Z,47.88
2023-04-14T19:57:10.856Z,47.85
2023-04-14T19:58:43.733Z,47.89
2023-04-14T20:00:17.085Z,48.03
2023-04-14T20:01:50.826Z,47.88
2023-04-14T20:03:22.779Z,47.93
2023-04-14T20:04:54.682Z,48.13
2023-04-14T20:06:27.034Z,47.46
2023-04-14T20:07:59.147Z,47.66
2023-04-14T20:09:31.008Z,47.63
2023-04-14T20:11:02.939Z,47.57
2023-04-14T20:12:34.944Z,47.65
2023-04-14T20:14:06.859Z,47.71
2023-04-14T20:15:38.544Z,48.11
2023-04-14T20:17:10.364Z,48.11
2023-04-14T20:18:45.855Z,47.78
2023-04-14T20:20:18.125Z,48.33
2023-04-14T20:21:49.975Z,48.02
2023-04-14T20:23:21.992Z,48.11
2023-04-14T20:24:53.888Z,48.23
2023-04-14T20:26:25.633Z,48.14
2023-04-14T20:27:57.750Z,48.36
2023-04-14T20:29:38.476Z,48.07
2023-04-14T20:31:22.867Z,48.12
2023-04-14T20:33:10.687Z,48.62
2023-04-14T20:35:23.873Z,48.35
2023-04-14T20:36:57.096Z,48.61
2023-04-14T20:39:23.860Z,48.67
2023-04-14T20:41:01.290Z,48.69
2023-04-14T20:42:33.761Z,48.31
2023-04-14T20:44:05.732Z,48.96
2023-04-14T20:45:57.642Z,48.71
2023-04-14T20:47:29.353Z,48.88
2023-04-14T20:49:03.112Z,48.64
2023-04-14T20:50:35.210Z,48.51
2023-04-14T20:52:07.744Z,48.95
2023-04-14T20:53:39.636Z,48.70
2023-04-14T20:55:12.386Z,48.93
2023-04-14T20:56:44.259Z,48.71
2023-04-14T20:58:16.076Z,48.90
2023-04-14T20:59:48.035Z,48.96
2023-04-14T21:01:20.731Z,49.07
2023-04-14T21:02:52.816Z,48.77
2023-04-14T21:04:26.223Z,49.13
2023-04-14T21:05:58.320Z,48.71
2023-04-14T21:08:09.290Z,48.92
2023-04-14T21:19:45.708Z,49.74
2023-04-14T21:21:18.140Z,49.47
2023-04-14T21:22:49.736Z,49.17
2023-04-14T21:24:21.285Z,49.50
2023-04-14T21:25:52.835Z,49.33
2023-04-14T21:27:24.348Z,49.37
2023-04-14T21:28:56.749Z,49.32
2023-04-14T21:35:19.454Z,48.83
2023-04-14T21:36:51.561Z,48.82
2023-04-14T21:38:29.042Z,49.06
2023-04-14T21:40:08.229Z,48.94
2023-04-14T21:41:46.392Z,49.27
2023-04-14T21:43:18.403Z,48.95
2023-04-14T21:44:50.512Z,49.59
2023-04-14T21:46:22.339Z,49.51
2023-04-14T21:47:54.281Z,48.68
2023-04-14T21:49:26.030Z,49.16
2023-04-14T21:50:57.878Z,49.09
2023-04-14T21:52:29.802Z,49.29
2023-04-14T21:54:01.548Z,48.70
2023-04-14T21:55:33.382Z,49.24
2023-04-14T21:58:57.803Z,48.85
2023-04-14T22:00:31.077Z,48.95
2023-04-14T22:02:03.190Z,49.19
2023-04-14T22:03:37.723Z,49.19
2023-04-14T22:05:09.605Z,48.93
2023-04-14T22:06:43.219Z,49.13
2023-04-14T22:08:15.018Z,49.37
2023-04-14T22:09:48.952Z,49.33
2023-04-14T22:11:24.159Z,49.13
2023-04-14T22:12:56.204Z,49.12
2023-04-14T22:14:27.959Z,49.50
2023-04-14T22:16:02.976Z,49.28
2023-04-14T22:17:35.606Z,49.23
2023-04-14T22:19:07.550Z,49.63
2023-04-14T22:20:39.834Z,49.32
2023-04-14T22:22:11.556Z,49.59
2023-04-14T22:23:46.614Z,49.79
2023-04-14T22:25:20.964Z,49.58
2023-04-14T22:27:02.211Z,49.43
2023-04-14T22:28:38.296Z,49.48
2023-04-14T22:30:28.547Z,49.36
2023-04-14T22:32:01.146Z,49.44
2023-04-14T22:33:38.082Z,49.76
2023-04-14T22:35:10.756Z,49.42
2023-04-14T22:36:43.336Z,49.23
2023-04-14T22:38:15.217Z,49.56
2023-04-14T22:39:52.360Z,49.65
2023-04-14T22:41:27.438Z,49.27
2023-04-14T22:42:59.118Z,49.35
2023-04-14T22:44:31.013Z,49.41
2023-04-14T22:46:05.548Z,48.75